sensor_id;sensor_type;location;lat;lon;timestamp;temperature;humidity
3818;DHT22;1924;48.078;11.516;2023-11-21T00:02:03;8.20;99.90
3818;DHT22;1924;48.078;11.516;2023-11-21T00:04:30;8.10;99.90
3818;DHT22;1924;48.078;11.516;2023-11-21T00:06:57;8.10;99.90
3818;DHT22;1924;48.078;11.516;2023-11-21T00:09:24;8.00;99.90
3818;DHT22;1924;48.078;11.516;2023-11-21T05:01:37;7.50;99.90
3818;DHT22;1924;48.078;11.516;2023-11-21T05:04:06;7.50;99.90
3818;DHT22;1924;48.078;11.516;2023-11-21T05:06:36;7.60;99.90
3818;DHT22;1924;48.078;11.516;2023-11-21T05:09:11;7.60;99.90
3818;DHT22;1924;48.078;11.516;2023-11-21T05:11:48;7.60;99.90
3818;DHT22;1924;48.078;11.516;2023-11-21T05:14:16;7.60;99.90
3818;DHT22;1924;48.078;11.516;2023-11-21T05:16:47;7.50;99.90
3818;DHT22;1924;48.078;11.516;2023-11-21T05:19:20;7.60;99.90
3818;DHT22;1924;48.078;11.516;2023-11-21T05:21:57;7.60;99.90
3818;DHT22;1924;48.078;11.516;2023-11-21T05:24:25;7.40;99.90
3818;DHT22;1924;48.078;11.516;2023-11-21T05:26:55;7.40;99.90
3818;DHT22;1924;48.078;11.516;2023-11-21T05:29:26;7.50;99.90
3818;DHT22;1924;48.078;11.516;2023-11-21T05:31:59;7.50;99.90
3818;DHT22;1924;48.078;11.516;2023-11-21T05:34:29;7.50;99.90
3818;DHT22;1924;48.078;11.516;2023-11-21T05:37:00;7.40;99.90
3818;DHT22;1924;48.078;11.516;2023-11-21T05:39:31;7.50;99.90
3818;DHT22;1924;48.078;11.516;2023-11-21T05:42:01;7.50;99.90
3818;DHT22;1924;48.078;11.516;2023-11-21T05:44:36;7.50;99.90
3818;DHT22;1924;48.078;11.516;2023-11-21T05:47:06;7.40;99.90
3818;DHT22;1924;48.078;11.516;2023-11-21T05:49:41;7.40;99.90
3818;DHT22;1924;48.078;11.516;2023-11-21T05:52:12;7.40;99.90
3818;DHT22;1924;48.078;11.516;2023-11-21T05:54:47;7.40;99.90
3818;DHT22;1924;48.078;11.516;2023-11-21T05:57:14;7.50;99.90
3818;DHT22;1924;48.078;11.516;2023-11-21T05:59:40;7.50;99.90
3818;DHT22;1924;48.078;11.516;2023-11-21T06:02:08;7.50;99.90
3818;DHT22;1924;48.078;11.516;2023-11-21T06:04:36;7.50;99.90
3818;DHT22;1924;48.078;11.516;2023-11-21T06:07:03;7.50;99.90
3818;DHT22;1924;48.078;11.516;2023-11-21T06:09:30;7.50;99.90
3818;DHT22;1924;48.078;11.516;2023-11-21T06:11:57;7.50;99.90
3818;DHT22;1924;48.078;11.516;2023-11-21T06:14:24;7.50;99.90
3818;DHT22;1924;48.078;11.516;2023-11-21T06:16:50;7.50;99.90
3818;DHT22;1924;48.078;11.516;2023-11-21T06:19:19;7.60;99.90
3818;DHT22;1924;48.078;11.516;2023-11-21T06:21:46;7.60;99.90
3818;DHT22;1924;48.078;11.516;2023-11-21T06:24:13;7.60;99.90
3818;DHT22;1924;48.078;11.516;2023-11-21T06:26:40;7.50;99.90
3818;DHT22;1924;48.078;11.516;2023-11-21T06:29:07;7.50;99.90
3818;DHT22;1924;48.078;11.516;2023-11-21T06:31:34;7.50;99.90
3818;DHT22;1924;48.078;11.516;2023-11-21T06:34:01;7.50;99.90
3818;DHT22;1924;48.078;11.516;2023-11-21T06:36:30;7.50;99.90
3818;DHT22;1924;48.078;11.516;2023-11-21T06:38:56;7.40;99.90
3818;DHT22;1924;48.078;11.516;2023-11-21T06:41:23;7.50;99.90
3818;DHT22;1924;48.078;11.516;2023-11-21T06:43:50;7.50;99.90
3818;DHT22;1924;48.078;11.516;2023-11-21T06:46:18;7.50;99.90
3818;DHT22;1924;48.078;11.516;2023-11-21T06:48:45;7.50;99.90
3818;DHT22;1924;48.078;11.516;2023-11-21T06:51:12;7.60;99.90
3818;DHT22;1924;48.078;11.516;2023-11-21T06:53:40;7.50;99.90
3818;DHT22;1924;48.078;11.516;2023-11-21T06:56:15;7.50;99.90
3818;DHT22;1924;48.078;11.516;2023-11-21T06:58:45;7.60;99.90
3818;DHT22;1924;48.078;11.516;2023-11-21T07:01:23;7.60;99.90
3818;DHT22;1924;48.078;11.516;2023-11-21T07:03:51;7.60;99.90
3818;DHT22;1924;48.078;11.516;2023-11-21T07:06:21;7.60;99.90
3818;DHT22;1924;48.078;11.516;2023-11-21T07:08:52;7.50;99.90
3818;DHT22;1924;48.078;11.516;2023-11-21T07:11:22;7.60;99.90
3818;DHT22;1924;48.078;11.516;2023-11-21T07:14:01;7.50;99.90
3818;DHT22;1924;48.078;11.516;2023-11-21T07:16:35;7.60;99.90
3818;DHT22;1924;48.078;11.516;2023-11-21T07:19:03;7.60;99.90
3818;DHT22;1924;48.078;11.516;2023-11-21T07:21:33;7.60;99.90
3818;DHT22;1924;48.078;11.516;2023-11-21T07:24:08;7.60;99.90
3818;DHT22;1924;48.078;11.516;2023-11-21T07:26:40;7.60;99.90
3818;DHT22;1924;48.078;11.516;2023-11-21T07:29:11;7.50;99.90
3818;DHT22;1924;48.078;11.516;2023-11-21T07:31:44;7.50;99.90
3818;DHT22;1924;48.078;11.516;2023-11-21T07:34:12;7.50;99.90
3818;DHT22;1924;48.078;11.516;2023-11-21T07:36:42;7.50;99.90
3818;DHT22;1924;48.078;11.516;2023-11-21T07:39:15;7.70;99.90
3818;DHT22;1924;48.078;11.516;2023-11-21T07:41:43;7.70;99.90
3818;DHT22;1924;48.078;11.516;2023-11-21T07:44:18;7.70;99.90
3818;DHT22;1924;48.078;11.516;2023-11-21T07:46:46;7.70;99.90
3818;DHT22;1924;48.078;11.516;2023-11-21T07:49:17;7.80;99.90
3818;DHT22;1924;48.078;11.516;2023-11-21T07:51:52;7.70;99.90
3818;DHT22;1924;48.078;11.516;2023-11-21T07:54:23;7.70;99.90
3818;DHT22;1924;48.078;11.516;2023-11-21T07:56:50;7.70;99.90
3818;DHT22;1924;48.078;11.516;2023-11-21T07:59:16;7.60;99.90
3818;DHT22;1924;48.078;11.516;2023-11-21T08:01:43;7.70;99.90
3818;DHT22;1924;48.078;11.516;2023-11-21T08:04:11;7.80;99.90
3818;DHT22;1924;48.078;11.516;2023-11-21T08:06:38;7.80;99.90
3818;DHT22;1924;48.078;11.516;2023-11-21T08:09:06;7.80;99.90
3818;DHT22;1924;48.078;11.516;2023-11-21T08:11:35;7.80;99.90
3818;DHT22;1924;48.078;11.516;2023-11-21T08:14:02;7.90;99.90
3818;DHT22;1924;48.078;11.516;2023-11-21T08:16:29;7.90;99.90
3818;DHT22;1924;48.078;11.516;2023-11-21T08:18:56;7.90;99.90
3818;DHT22;1924;48.078;11.516;2023-11-21T08:21:22;8.00;99.90
3818;DHT22;1924;48.078;11.516;2023-11-21T08:23:50;7.90;99.90
3818;DHT22;1924;48.078;11.516;2023-11-21T08:26:19;8.00;99.90
3818;DHT22;1924;48.078;11.516;2023-11-21T08:28:47;8.00;99.90
3818;DHT22;1924;48.078;11.516;2023-11-21T08:31:14;8.10;99.90
3818;DHT22;1924;48.078;11.516;2023-11-21T08:33:41;8.10;99.90
3818;DHT22;1924;48.078;11.516;2023-11-21T08:36:08;8.20;99.90
3818;DHT22;1924;48.078;11.516;2023-11-21T08:38:36;8.20;99.90
3818;DHT22;1924;48.078;11.516;2023-11-21T08:41:04;8.20;99.90
3818;DHT22;1924;48.078;11.516;2023-11-21T08:43:33;8.30;99.90
3818;DHT22;1924;48.078;11.516;2023-11-21T08:46:01;8.30;99.90
3818;DHT22;1924;48.078;11.516;2023-11-21T08:48:28;8.50;99.90
3818;DHT22;1924;48.078;11.516;2023-11-21T08:50:55;8.50;99.90
3818;DHT22;1924;48.078;11.516;2023-11-21T08:53:22;8.50;99.90
3818;DHT22;1924;48.078;11.516;2023-11-21T08:55:49;8.60;99.90
3818;DHT22;1924;48.078;11.516;2023-11-21T08:58:20;8.70;99.90
3818;DHT22;1924;48.078;11.516;2023-11-21T09:00:57;8.80;99.90
3818;DHT22;1924;48.078;11.516;2023-11-21T09:03:32;8.80;99.90
3818;DHT22;1924;48.078;11.516;2023-11-21T09:06:01;8.70;99.90
3818;DHT22;1924;48.078;11.516;2023-11-21T09:08:31;8.70;99.90
3818;DHT22;1924;48.078;11.516;2023-11-21T09:11:02;8.80;99.90
3818;DHT22;1924;48.078;11.516;2023-11-21T09:13:41;8.80;99.90
3818;DHT22;1924;48.078;11.516;2023-11-21T09:16:11;8.80;99.90
3818;DHT22;1924;48.078;11.516;2023-11-21T09:18:46;8.80;99.90
3818;DHT22;1924;48.078;11.516;2023-11-21T09:21:17;8.80;99.90
3818;DHT22;1924;48.078;11.516;2023-11-21T09:23:54;8.80;99.90
3818;DHT22;1924;48.078;11.516;2023-11-21T09:26:31;8.70;99.90
3818;DHT22;1924;48.078;11.516;2023-11-21T09:28:59;8.80;99.90
3818;DHT22;1924;48.078;11.516;2023-11-21T09:31:27;8.80;99.90
3818;DHT22;1924;48.078;11.516;2023-11-21T09:33:58;8.80;99.90
3818;DHT22;1924;48.078;11.516;2023-11-21T09:36:39;8.90;99.90
3818;DHT22;1924;48.078;11.516;2023-11-21T09:39:20;8.90;99.90
3818;DHT22;1924;48.078;11.516;2023-11-21T09:41:55;8.90;99.90
3818;DHT22;1924;48.078;11.516;2023-11-21T09:44:35;8.90;99.90
3818;DHT22;1924;48.078;11.516;2023-11-21T09:47:15;9.00;99.90
3818;DHT22;1924;48.078;11.516;2023-11-21T09:49:55;9.00;99.90
3818;DHT22;1924;48.078;11.516;2023-11-21T09:52:29;8.90;99.90
3818;DHT22;1924;48.078;11.516;2023-11-21T09:55:01;8.80;99.90
3818;DHT22;1924;48.078;11.516;2023-11-21T09:57:32;8.80;99.90
3818;DHT22;1924;48.078;11.516;2023-11-21T10:00:02;8.70;99.90
3818;DHT22;1924;48.078;11.516;2023-11-21T10:02:41;8.80;99.90
3818;DHT22;1924;48.078;11.516;2023-11-21T10:05:17;8.90;99.90
3818;DHT22;1924;48.078;11.516;2023-11-21T10:07:56;9.10;99.90
3818;DHT22;1924;48.078;11.516;2023-11-21T10:10:27;9.10;99.90
3818;DHT22;1924;48.078;11.516;2023-11-21T10:13:06;9.10;99.90
3818;DHT22;1924;48.078;11.516;2023-11-21T10:15:38;9.10;99.90
3818;DHT22;1924;48.078;11.516;2023-11-21T10:18:08;9.00;99.90
3818;DHT22;1924;48.078;11.516;2023-11-21T10:20:41;9.10;99.90
3818;DHT22;1924;48.078;11.516;2023-11-21T10:23:15;9.20;99.90
3818;DHT22;1924;48.078;11.516;2023-11-21T10:25:46;9.10;99.90
3818;DHT22;1924;48.078;11.516;2023-11-21T10:28:16;9.20;99.90
3818;DHT22;1924;48.078;11.516;2023-11-21T10:30:49;9.20;99.90
3818;DHT22;1924;48.078;11.516;2023-11-21T10:33:17;9.30;99.90
3818;DHT22;1924;48.078;11.516;2023-11-21T10:36:03;9.40;99.90
3818;DHT22;1924;48.078;11.516;2023-11-21T10:38:42;9.30;99.90
3818;DHT22;1924;48.078;11.516;2023-11-21T10:41:21;9.20;99.90
3818;DHT22;1924;48.078;11.516;2023-11-21T10:43:53;9.20;99.90
3818;DHT22;1924;48.078;11.516;2023-11-21T10:46:22;9.10;99.90
3818;DHT22;1924;48.078;11.516;2023-11-21T10:48:55;9.20;99.90
3818;DHT22;1924;48.078;11.516;2023-11-21T10:51:25;9.20;99.90
3818;DHT22;1924;48.078;11.516;2023-11-21T10:53:57;9.20;99.90
3818;DHT22;1924;48.078;11.516;2023-11-21T10:56:26;9.20;99.90
3818;DHT22;1924;48.078;11.516;2023-11-21T10:58:56;9.20;99.90
3818;DHT22;1924;48.078;11.516;2023-11-21T11:01:26;9.30;99.90
3818;DHT22;1924;48.078;11.516;2023-11-21T11:03:55;9.40;99.90
3818;DHT22;1924;48.078;11.516;2023-11-21T11:06:25;9.40;99.90
3818;DHT22;1924;48.078;11.516;2023-11-21T11:08:53;9.40;99.90
3818;DHT22;1924;48.078;11.516;2023-11-21T11:11:20;9.40;99.90
3818;DHT22;1924;48.078;11.516;2023-11-21T11:13:47;9.40;99.90
3818;DHT22;1924;48.078;11.516;2023-11-21T11:16:15;9.50;99.90
3818;DHT22;1924;48.078;11.516;2023-11-21T11:18:43;9.40;99.90
3818;DHT22;1924;48.078;11.516;2023-11-21T11:21:20;9.50;99.90
3818;DHT22;1924;48.078;11.516;2023-11-21T11:24:05;9.50;99.90
3818;DHT22;1924;48.078;11.516;2023-11-21T11:26:42;9.60;99.90
3818;DHT22;1924;48.078;11.516;2023-11-21T11:29:23;9.60;99.90
3818;DHT22;1924;48.078;11.516;2023-11-21T11:31:59;9.50;99.90
3818;DHT22;1924;48.078;11.516;2023-11-21T11:34:33;9.50;99.90
3818;DHT22;1924;48.078;11.516;2023-11-21T11:37:03;9.40;99.90
3818;DHT22;1924;48.078;11.516;2023-11-21T11:39:36;9.40;99.90
3818;DHT22;1924;48.078;11.516;2023-11-21T11:42:07;9.30;99.90
3818;DHT22;1924;48.078;11.516;2023-11-21T11:44:51;9.40;99.90
3818;DHT22;1924;48.078;11.516;2023-11-21T11:47:24;9.50;99.90
3818;DHT22;1924;48.078;11.516;2023-11-21T11:50:06;9.40;99.90
3818;DHT22;1924;48.078;11.516;2023-11-21T11:52:38;9.50;99.90
3818;DHT22;1924;48.078;11.516;2023-11-21T11:55:09;9.40;99.90
3818;DHT22;1924;48.078;11.516;2023-11-21T11:57:37;9.50;99.90
3818;DHT22;1924;48.078;11.516;2023-11-21T12:00:09;9.60;99.90
3818;DHT22;1924;48.078;11.516;2023-11-21T12:02:37;9.60;99.90
3818;DHT22;1924;48.078;11.516;2023-11-21T12:05:09;9.70;99.90
3818;DHT22;1924;48.078;11.516;2023-11-21T12:07:55;9.50;99.90
3818;DHT22;1924;48.078;11.516;2023-11-21T12:10:25;9.60;99.90
3818;DHT22;1924;48.078;11.516;2023-11-21T12:12:53;9.70;99.90
3818;DHT22;1924;48.078;11.516;2023-11-21T12:15:21;9.70;99.90
3818;DHT22;1924;48.078;11.516;2023-11-21T12:17:49;9.70;99.90
3818;DHT22;1924;48.078;11.516;2023-11-21T12:20:18;9.60;99.90
3818;DHT22;1924;48.078;11.516;2023-11-21T12:22:46;9.50;99.90
3818;DHT22;1924;48.078;11.516;2023-11-21T12:25:17;9.50;99.90
3818;DHT22;1924;48.078;11.516;2023-11-21T12:27:47;9.60;99.90
3818;DHT22;1924;48.078;11.516;2023-11-21T12:30:16;9.40;99.90
3818;DHT22;1924;48.078;11.516;2023-11-21T12:32:43;9.30;99.90
3818;DHT22;1924;48.078;11.516;2023-11-21T12:35:11;9.10;99.90
3818;DHT22;1924;48.078;11.516;2023-11-21T12:37:40;9.20;99.90
3818;DHT22;1924;48.078;11.516;2023-11-21T12:40:09;9.30;99.90
3818;DHT22;1924;48.078;11.516;2023-11-21T12:42:37;9.40;99.90
3818;DHT22;1924;48.078;11.516;2023-11-21T12:45:09;9.40;99.90
3818;DHT22;1924;48.078;11.516;2023-11-21T12:47:44;9.40;99.90
3818;DHT22;1924;48.078;11.516;2023-11-21T12:50:11;9.30;99.90
3818;DHT22;1924;48.078;11.516;2023-11-21T12:52:41;9.40;99.90
3818;DHT22;1924;48.078;11.516;2023-11-21T12:55:13;9.50;99.90
3818;DHT22;1924;48.078;11.516;2023-11-21T12:57:44;9.60;99.90
3818;DHT22;1924;48.078;11.516;2023-11-21T13:00:16;9.60;99.90
3818;DHT22;1924;48.078;11.516;2023-11-21T13:02:55;9.50;99.90
3818;DHT22;1924;48.078;11.516;2023-11-21T13:05:25;9.60;99.90
3818;DHT22;1924;48.078;11.516;2023-11-21T13:07:52;9.60;99.90
3818;DHT22;1924;48.078;11.516;2023-11-21T13:10:21;9.70;99.90
3818;DHT22;1924;48.078;11.516;2023-11-21T13:12:51;9.70;99.90
3818;DHT22;1924;48.078;11.516;2023-11-21T13:15:20;9.80;99.90
3818;DHT22;1924;48.078;11.516;2023-11-21T13:17:47;9.70;99.90
3818;DHT22;1924;48.078;11.516;2023-11-21T13:20:15;9.70;99.90
3818;DHT22;1924;48.078;11.516;2023-11-21T13:22:47;9.60;99.90
3818;DHT22;1924;48.078;11.516;2023-11-21T13:25:15;9.70;99.90
3818;DHT22;1924;48.078;11.516;2023-11-21T13:27:43;9.70;99.90
3818;DHT22;1924;48.078;11.516;2023-11-21T13:30:12;9.50;99.90
3818;DHT22;1924;48.078;11.516;2023-11-21T13:32:42;9.60;99.90
3818;DHT22;1924;48.078;11.516;2023-11-21T13:35:09;9.70;99.90
3818;DHT22;1924;48.078;11.516;2023-11-21T13:37:50;9.70;99.90
3818;DHT22;1924;48.078;11.516;2023-11-21T13:40:22;9.70;99.90
3818;DHT22;1924;48.078;11.516;2023-11-21T13:42:51;9.60;99.90
3818;DHT22;1924;48.078;11.516;2023-11-21T13:45:21;9.60;99.90
3818;DHT22;1924;48.078;11.516;2023-11-21T13:47:50;9.50;99.90
3818;DHT22;1924;48.078;11.516;2023-11-21T13:50:18;9.50;99.90
3818;DHT22;1924;48.078;11.516;2023-11-21T13:52:48;9.50;99.90
3818;DHT22;1924;48.078;11.516;2023-11-21T13:55:16;9.70;99.90
3818;DHT22;1924;48.078;11.516;2023-11-21T13:57:43;9.60;99.90
3818;DHT22;1924;48.078;11.516;2023-11-21T14:00:13;9.60;99.90
3818;DHT22;1924;48.078;11.516;2023-11-21T14:03:03;9.60;99.90
3818;DHT22;1924;48.078;11.516;2023-11-21T14:05:34;9.60;99.90
3818;DHT22;1924;48.078;11.516;2023-11-21T14:08:01;9.60;99.90
3818;DHT22;1924;48.078;11.516;2023-11-21T14:10:30;9.70;99.90
3818;DHT22;1924;48.078;11.516;2023-11-21T14:13:05;9.80;99.90
3818;DHT22;1924;48.078;11.516;2023-11-21T14:15:32;9.90;99.90
3818;DHT22;1924;48.078;11.516;2023-11-21T14:18:05;9.90;99.90
3818;DHT22;1924;48.078;11.516;2023-11-21T14:20:33;10.00;99.90
3818;DHT22;1924;48.078;11.516;2023-11-21T14:23:01;10.10;99.90
3818;DHT22;1924;48.078;11.516;2023-11-21T14:25:29;10.10;99.90
3818;DHT22;1924;48.078;11.516;2023-11-21T14:27:57;9.90;99.90
3818;DHT22;1924;48.078;11.516;2023-11-21T14:30:24;9.70;99.90
3818;DHT22;1924;48.078;11.516;2023-11-21T14:32:52;9.50;99.90
3818;DHT22;1924;48.078;11.516;2023-11-21T14:35:20;9.30;99.90
3818;DHT22;1924;48.078;11.516;2023-11-21T14:37:48;9.30;99.90
3818;DHT22;1924;48.078;11.516;2023-11-21T14:40:14;9.10;99.90
3818;DHT22;1924;48.078;11.516;2023-11-21T14:42:42;8.90;99.90
3818;DHT22;1924;48.078;11.516;2023-11-21T14:45:13;8.70;99.90
3818;DHT22;1924;48.078;11.516;2023-11-21T14:47:45;8.60;99.90
3818;DHT22;1924;48.078;11.516;2023-11-21T14:50:17;8.50;99.90
3818;DHT22;1924;48.078;11.516;2023-11-21T14:53:02;8.50;99.90
3818;DHT22;1924;48.078;11.516;2023-11-21T14:55:38;8.40;99.90
3818;DHT22;1924;48.078;11.516;2023-11-21T14:58:19;8.50;99.90
3818;DHT22;1924;48.078;11.516;2023-11-21T15:00:57;8.50;99.90
3818;DHT22;1924;48.078;11.516;2023-11-21T15:03:31;8.40;99.90
3818;DHT22;1924;48.078;11.516;2023-11-21T15:06:10;8.30;99.90
3818;DHT22;1924;48.078;11.516;2023-11-21T15:09:00;8.30;99.90
3818;DHT22;1924;48.078;11.516;2023-11-21T15:11:45;8.30;99.90
3818;DHT22;1924;48.078;11.516;2023-11-21T15:14:14;8.40;99.90
3818;DHT22;1924;48.078;11.516;2023-11-21T15:16:46;8.30;99.90
3818;DHT22;1924;48.078;11.516;2023-11-21T15:19:21;8.20;99.90
3818;DHT22;1924;48.078;11.516;2023-11-21T15:21:52;8.20;99.90
3818;DHT22;1924;48.078;11.516;2023-11-21T15:24:31;8.30;99.90
3818;DHT22;1924;48.078;11.516;2023-11-21T15:27:08;8.40;99.90
3818;DHT22;1924;48.078;11.516;2023-11-21T15:29:45;8.40;99.90
3818;DHT22;1924;48.078;11.516;2023-11-21T15:32:16;8.40;99.90
3818;DHT22;1924;48.078;11.516;2023-11-21T15:34:48;8.40;99.90
3818;DHT22;1924;48.078;11.516;2023-11-21T15:37:25;8.30;99.90
3818;DHT22;1924;48.078;11.516;2023-11-21T15:39:58;8.30;99.90
3818;DHT22;1924;48.078;11.516;2023-11-21T15:42:28;8.30;99.90
3818;DHT22;1924;48.078;11.516;2023-11-21T15:45:08;8.40;99.90
3818;DHT22;1924;48.078;11.516;2023-11-21T15:47:40;8.30;99.90
3818;DHT22;1924;48.078;11.516;2023-11-21T15:50:08;8.10;99.90
3818;DHT22;1924;48.078;11.516;2023-11-21T15:52:46;8.00;99.90
3818;DHT22;1924;48.078;11.516;2023-11-21T15:55:17;8.00;99.90
3818;DHT22;1924;48.078;11.516;2023-11-21T15:57:44;8.00;99.90
3818;DHT22;1924;48.078;11.516;2023-11-21T16:00:12;8.00;99.90
3818;DHT22;1924;48.078;11.516;2023-11-21T16:02:43;8.10;99.90
3818;DHT22;1924;48.078;11.516;2023-11-21T16:05:10;8.10;99.90
3818;DHT22;1924;48.078;11.516;2023-11-21T16:07:39;7.90;99.90
3818;DHT22;1924;48.078;11.516;2023-11-21T16:10:07;8.00;99.90
3818;DHT22;1924;48.078;11.516;2023-11-21T16:12:39;7.90;99.90
3818;DHT22;1924;48.078;11.516;2023-11-21T16:15:06;7.90;99.90
3818;DHT22;1924;48.078;11.516;2023-11-21T16:17:34;7.80;99.90
3818;DHT22;1924;48.078;11.516;2023-11-21T16:20:01;7.90;99.90
3818;DHT22;1924;48.078;11.516;2023-11-21T16:22:31;7.90;99.90
3818;DHT22;1924;48.078;11.516;2023-11-21T16:24:58;7.80;99.90
3818;DHT22;1924;48.078;11.516;2023-11-21T16:27:26;8.00;99.90
3818;DHT22;1924;48.078;11.516;2023-11-21T16:29:54;7.90;99.90
3818;DHT22;1924;48.078;11.516;2023-11-21T16:32:21;7.90;99.90
3818;DHT22;1924;48.078;11.516;2023-11-21T16:34:48;8.10;99.90
3818;DHT22;1924;48.078;11.516;2023-11-21T16:37:15;8.20;99.90
3818;DHT22;1924;48.078;11.516;2023-11-21T16:39:42;8.20;99.90
3818;DHT22;1924;48.078;11.516;2023-11-21T16:42:08;8.20;99.90
3818;DHT22;1924;48.078;11.516;2023-11-21T16:44:35;8.00;99.90
3818;DHT22;1924;48.078;11.516;2023-11-21T16:47:03;8.10;99.90
3818;DHT22;1924;48.078;11.516;2023-11-21T16:49:31;8.10;99.90
3818;DHT22;1924;48.078;11.516;2023-11-21T16:51:58;8.10;99.90
3818;DHT22;1924;48.078;11.516;2023-11-21T16:54:26;8.10;99.90
3818;DHT22;1924;48.078;11.516;2023-11-21T16:57:04;8.10;99.90
3818;DHT22;1924;48.078;11.516;2023-11-21T16:59:36;8.20;99.90
3818;DHT22;1924;48.078;11.516;2023-11-21T17:02:05;8.20;99.90
3818;DHT22;1924;48.078;11.516;2023-11-21T17:04:35;8.20;99.90
3818;DHT22;1924;48.078;11.516;2023-11-21T17:07:07;8.10;99.90
3818;DHT22;1924;48.078;11.516;2023-11-21T17:09:40;8.10;99.90
3818;DHT22;1924;48.078;11.516;2023-11-21T17:12:15;8.00;99.90
3818;DHT22;1924;48.078;11.516;2023-11-21T17:14:44;8.00;99.90
3818;DHT22;1924;48.078;11.516;2023-11-21T17:17:19;8.10;99.90
3818;DHT22;1924;48.078;11.516;2023-11-21T17:19:53;8.10;99.90
3818;DHT22;1924;48.078;11.516;2023-11-21T17:22:23;8.00;99.90
3818;DHT22;1924;48.078;11.516;2023-11-21T17:25:08;8.00;99.90
3818;DHT22;1924;48.078;11.516;2023-11-21T17:27:41;8.00;99.90
3818;DHT22;1924;48.078;11.516;2023-11-21T17:30:15;7.80;99.90
3818;DHT22;1924;48.078;11.516;2023-11-21T17:32:47;7.70;99.90
3818;DHT22;1924;48.078;11.516;2023-11-21T17:35:17;7.60;99.90
3818;DHT22;1924;48.078;11.516;2023-11-21T17:37:49;7.70;99.90
3818;DHT22;1924;48.078;11.516;2023-11-21T17:40:18;7.80;99.90
3818;DHT22;1924;48.078;11.516;2023-11-21T17:42:53;7.80;99.90
3818;DHT22;1924;48.078;11.516;2023-11-21T17:45:22;7.90;99.90
3818;DHT22;1924;48.078;11.516;2023-11-21T17:47:52;7.90;99.90
3818;DHT22;1924;48.078;11.516;2023-11-21T17:50:19;7.90;99.90
3818;DHT22;1924;48.078;11.516;2023-11-21T17:52:47;8.00;99.90
3818;DHT22;1924;48.078;11.516;2023-11-21T17:55:24;8.00;99.90
3818;DHT22;1924;48.078;11.516;2023-11-21T17:57:53;8.00;99.90
3818;DHT22;1924;48.078;11.516;2023-11-21T18:00:31;8.00;99.90
3818;DHT22;1924;48.078;11.516;2023-11-21T18:03:09;7.90;99.90
3818;DHT22;1924;48.078;11.516;2023-11-21T18:05:38;8.00;99.90
3818;DHT22;1924;48.078;11.516;2023-11-21T18:08:13;8.00;99.90
3818;DHT22;1924;48.078;11.516;2023-11-21T18:10:43;8.10;99.90
3818;DHT22;1924;48.078;11.516;2023-11-21T18:13:13;8.00;99.90
3818;DHT22;1924;48.078;11.516;2023-11-21T18:15:44;7.90;99.90
3818;DHT22;1924;48.078;11.516;2023-11-21T18:18:17;7.90;99.90
3818;DHT22;1924;48.078;11.516;2023-11-21T18:20:50;7.90;99.90
3818;DHT22;1924;48.078;11.516;2023-11-21T18:23:23;7.90;99.90
3818;DHT22;1924;48.078;11.516;2023-11-21T18:25:57;7.90;99.90
3818;DHT22;1924;48.078;11.516;2023-11-21T18:28:28;7.90;99.90
3818;DHT22;1924;48.078;11.516;2023-11-21T18:31:05;7.90;99.90
3818;DHT22;1924;48.078;11.516;2023-11-21T18:33:48;7.90;99.90
3818;DHT22;1924;48.078;11.516;2023-11-21T18:36:31;7.90;99.90
3818;DHT22;1924;48.078;11.516;2023-11-21T18:39:11;7.80;99.90
3818;DHT22;1924;48.078;11.516;2023-11-21T18:41:43;7.80;99.90
3818;DHT22;1924;48.078;11.516;2023-11-21T18:44:27;7.80;99.90
3818;DHT22;1924;48.078;11.516;2023-11-21T18:46:57;7.80;99.90
3818;DHT22;1924;48.078;11.516;2023-11-21T18:49:27;7.80;99.90
3818;DHT22;1924;48.078;11.516;2023-11-21T18:51:55;7.90;99.90
3818;DHT22;1924;48.078;11.516;2023-11-21T18:54:23;7.90;99.90
3818;DHT22;1924;48.078;11.516;2023-11-21T18:56:54;7.90;99.90
3818;DHT22;1924;48.078;11.516;2023-11-21T18:59:29;7.90;99.90
3818;DHT22;1924;48.078;11.516;2023-11-21T19:02:12;7.90;99.90
3818;DHT22;1924;48.078;11.516;2023-11-21T19:04:48;7.90;99.90
3818;DHT22;1924;48.078;11.516;2023-11-21T19:07:16;7.90;99.90
3818;DHT22;1924;48.078;11.516;2023-11-21T19:09:47;7.90;99.90
3818;DHT22;1924;48.078;11.516;2023-11-21T19:12:14;7.80;99.90
3818;DHT22;1924;48.078;11.516;2023-11-21T19:14:43;7.80;99.90
3818;DHT22;1924;48.078;11.516;2023-11-21T19:17:17;7.80;99.90
3818;DHT22;1924;48.078;11.516;2023-11-21T19:19:50;7.80;99.90
3818;DHT22;1924;48.078;11.516;2023-11-21T19:22:19;7.80;99.90
3818;DHT22;1924;48.078;11.516;2023-11-21T19:24:53;7.80;99.90
3818;DHT22;1924;48.078;11.516;2023-11-21T19:27:25;7.80;99.90
3818;DHT22;1924;48.078;11.516;2023-11-21T19:29:56;7.70;99.90
3818;DHT22;1924;48.078;11.516;2023-11-21T19:32:24;7.80;99.90
3818;DHT22;1924;48.078;11.516;2023-11-21T19:35:08;7.80;99.90
3818;DHT22;1924;48.078;11.516;2023-11-21T19:37:41;7.80;99.90
3818;DHT22;1924;48.078;11.516;2023-11-21T19:40:14;7.80;99.90
3818;DHT22;1924;48.078;11.516;2023-11-21T19:42:49;7.80;99.90
3818;DHT22;1924;48.078;11.516;2023-11-21T19:45:17;7.90;99.90
3818;DHT22;1924;48.078;11.516;2023-11-21T19:47:56;7.90;99.90
3818;DHT22;1924;48.078;11.516;2023-11-21T19:50:30;7.80;99.90
3818;DHT22;1924;48.078;11.516;2023-11-21T19:53:04;7.80;99.90
3818;DHT22;1924;48.078;11.516;2023-11-21T19:55:47;7.70;99.90
3818;DHT22;1924;48.078;11.516;2023-11-21T19:58:15;7.60;99.90
3818;DHT22;1924;48.078;11.516;2023-11-21T20:00:44;7.60;99.90
3818;DHT22;1924;48.078;11.516;2023-11-21T20:03:11;7.60;99.90
3818;DHT22;1924;48.078;11.516;2023-11-21T20:05:39;7.70;99.90
3818;DHT22;1924;48.078;11.516;2023-11-21T20:08:06;7.70;99.90
3818;DHT22;1924;48.078;11.516;2023-11-21T20:10:33;7.70;99.90
3818;DHT22;1924;48.078;11.516;2023-11-21T20:13:00;7.60;99.90
3818;DHT22;1924;48.078;11.516;2023-11-21T20:15:27;7.50;99.90
3818;DHT22;1924;48.078;11.516;2023-11-21T20:17:54;7.50;99.90
3818;DHT22;1924;48.078;11.516;2023-11-21T20:20:21;7.50;99.90
3818;DHT22;1924;48.078;11.516;2023-11-21T20:22:49;7.60;99.90
3818;DHT22;1924;48.078;11.516;2023-11-21T20:25:17;7.60;99.90
3818;DHT22;1924;48.078;11.516;2023-11-21T20:27:44;7.60;99.90
3818;DHT22;1924;48.078;11.516;2023-11-21T20:30:12;7.60;99.90
3818;DHT22;1924;48.078;11.516;2023-11-21T20:32:39;7.70;99.90
3818;DHT22;1924;48.078;11.516;2023-11-21T20:35:07;7.60;99.90
3818;DHT22;1924;48.078;11.516;2023-11-21T20:37:36;7.40;99.90
3818;DHT22;1924;48.078;11.516;2023-11-21T20:40:05;7.40;99.90
3818;DHT22;1924;48.078;11.516;2023-11-21T20:42:33;7.40;99.90
3818;DHT22;1924;48.078;11.516;2023-11-21T20:45:01;7.50;99.90
3818;DHT22;1924;48.078;11.516;2023-11-21T20:47:28;7.50;99.90
3818;DHT22;1924;48.078;11.516;2023-11-21T20:49:55;7.60;99.90
3818;DHT22;1924;48.078;11.516;2023-11-21T20:52:24;7.60;99.90
3818;DHT22;1924;48.078;11.516;2023-11-21T20:54:51;7.60;99.90
3818;DHT22;1924;48.078;11.516;2023-11-21T20:57:20;7.60;99.90
3818;DHT22;1924;48.078;11.516;2023-11-21T20:59:56;7.50;99.90
3818;DHT22;1924;48.078;11.516;2023-11-21T21:02:25;7.50;99.90
3818;DHT22;1924;48.078;11.516;2023-11-21T21:05:00;7.50;99.90
3818;DHT22;1924;48.078;11.516;2023-11-21T21:07:28;7.50;99.90
3818;DHT22;1924;48.078;11.516;2023-11-21T21:10:12;7.60;99.90
3818;DHT22;1924;48.078;11.516;2023-11-21T21:12:49;7.60;99.90
3818;DHT22;1924;48.078;11.516;2023-11-21T21:15:24;7.60;99.90
3818;DHT22;1924;48.078;11.516;2023-11-21T21:18:01;7.60;99.90